Hlavní strana
METAR-TAF:

METAR-TAF

Letiště :

Tampere, Finsko

zeměpisná šířka: 61-25N, zeměpisná délka: 023-35E, výška: 112 m

Aktuální stav počasí

Zpráva byla vytvořena před 14 minutami, v 04:20 UTC
Západní vítr 7 kt
Teplota -6°C
Vlhkost vzduchu 86%
Tlak 992 hPa
Viditelnost 10 km a více
Zataženo ve výšce 2900 ft
slabé sněžení

METAR: EFTP 160420Z AUTO 28007KT 9999 -SN OVC029 M06/M08 Q0992

Čas: 06:34 (04:34 UTC)

Předpověď počasí

Zpráva byla vytvořena před 2 hodinami a 5 minutami, v 02:29 UTC
Předpověď platná od 16 v 03 UTC do 17 v 03 UTC
Západoseverozápadní vítr 7 kt
Viditelnost 10 km a více
Polojasno ve výšce 1800 ft
Oblačno až skoro zataženo ve výšce 2000 ft
Změna
od 16 v 22 UTC do 16 v 24 UTC
Viditelnost: 2000 m
slabé sněžení

TAF: EFTP 160229Z 1603/1703 30007KT 9999 SCT018 BKN020 BECMG 1622/1624 2000 -SN

Stav a předpovědi počasí z více než 4 000 letišť (zprávy METAR a TAF).

Červené a žluté tečky na mapě představují dostupné meteorologické stanice.

Když kurzor umístíte na tečku, zobrazí se název stanice.

Pak kliknutím zobrazíte stav a předpověď počasí.

Chcete-li změnit mapu, kliknutím na zelené tlačítko se znaménkem +mapu přiblížíte, kliknutím na zelené tlačítko se znaménkem – mapu oddálíte a kliknutím na zelené šipky přejdete na sousední mapy.


METAR-TAF: